createdAt,value
2023-05-13T00:01:06.025Z,10.50
2023-05-13T00:04:47.883Z,10.82
2023-05-13T00:08:29.669Z,12.93
2023-05-13T00:12:11.586Z,14.40
2023-05-13T00:15:53.570Z,12.45
2023-05-13T00:19:35.555Z,12.18
2023-05-13T00:23:17.543Z,15.30
2023-05-13T00:26:59.479Z,13.90
2023-05-13T00:30:43.789Z,12.93
2023-05-13T00:34:25.670Z,13.10
2023-05-13T00:38:08.040Z,13.88
2023-05-13T00:41:49.842Z,13.82
2023-05-13T00:45:31.991Z,11.30
2023-05-13T00:49:13.976Z,13.68
2023-05-13T00:52:58.659Z,12.43
2023-05-13T00:56:40.532Z,12.43
2023-05-13T01:00:22.624Z,16.67
2023-05-13T01:04:16.457Z,12.27
2023-05-13T01:08:17.455Z,14.15
2023-05-13T01:12:07.567Z,15.15
2023-05-13T01:15:59.976Z,12.32
2023-05-13T01:19:46.861Z,13.60
2023-05-13T01:23:28.733Z,14.63
2023-05-13T01:27:10.604Z,11.65
2023-05-13T01:30:53.118Z,10.85
2023-05-13T01:34:36.142Z,9.45
2023-05-13T01:38:20.241Z,11.82
2023-05-13T01:42:02.103Z,13.52
2023-05-13T01:45:43.866Z,11.32
2023-05-13T01:49:26.048Z,14.57
2023-05-13T01:53:07.883Z,11.35
2023-05-13T01:56:49.756Z,9.98
2023-05-13T02:00:31.547Z,10.73
2023-05-13T02:04:13.403Z,12.30
2023-05-13T02:07:55.189Z,12.75
2023-05-13T02:11:36.992Z,10.05
2023-05-13T02:15:18.920Z,12.43
2023-05-13T02:19:00.875Z,10.30
2023-05-13T02:22:42.790Z,11.95
2023-05-13T02:26:24.702Z,10.88
2023-05-13T02:30:07.342Z,12.18
2023-05-13T02:33:49.188Z,11.13
2023-05-13T02:37:31.008Z,13.88
2023-05-13T02:41:12.888Z,9.60
2023-05-13T02:44:54.745Z,12.32
2023-05-13T02:48:36.567Z,14.48
2023-05-13T02:52:18.395Z,9.98
2023-05-13T02:56:00.182Z,13.05
2023-05-13T02:59:42.013Z,12.43
2023-05-13T03:03:23.994Z,10.05
2023-05-13T03:07:06.035Z,9.95
2023-05-13T03:10:47.957Z,11.10
2023-05-13T03:14:29.816Z,11.48
2023-05-13T03:18:11.661Z,11.35
2023-05-13T03:21:53.500Z,10.95
2023-05-13T03:25:35.325Z,10.90
2023-05-13T03:29:17.142Z,8.48
2023-05-13T03:32:59.002Z,10.10
2023-05-13T03:36:41.051Z,15.15
2023-05-13T03:40:23.028Z,12.80
2023-05-13T03:44:05.242Z,10.52
2023-05-13T03:47:47.128Z,13.02
2023-05-13T03:51:29.030Z,13.15
2023-05-13T03:55:10.879Z,13.63
2023-05-13T03:58:52.670Z,13.55
2023-05-13T04:02:34.719Z,12.18
2023-05-13T04:06:16.746Z,11.23
2023-05-13T04:09:58.588Z,11.80
2023-05-13T04:13:40.546Z,11.52
2023-05-13T04:17:22.375Z,14.73
2023-05-13T04:21:11.394Z,11.20
2023-05-13T04:24:56.544Z,12.90
2023-05-13T04:28:38.509Z,11.80
2023-05-13T04:32:22.202Z,12.38
2023-05-13T04:36:04.410Z,12.30
2023-05-13T04:39:47.096Z,12.80
2023-05-13T04:43:29.728Z,11.00
2023-05-13T04:47:11.951Z,11.73
2023-05-13T04:50:54.021Z,13.88
2023-05-13T04:54:37.743Z,11.52
2023-05-13T04:58:19.513Z,12.23
2023-05-13T05:02:01.472Z,11.77
2023-05-13T05:05:43.329Z,10.15
2023-05-13T05:09:25.328Z,12.68
2023-05-13T05:13:07.157Z,12.88
2023-05-13T05:16:52.389Z,12.88
2023-05-13T05:20:34.244Z,13.18
2023-05-13T05:24:16.108Z,14.68
2023-05-13T05:27:58.148Z,12.90
2023-05-13T05:31:41.039Z,14.23
2023-05-13T05:35:22.878Z,14.05
2023-05-13T05:39:04.796Z,15.98
2023-05-13T05:42:46.662Z,15.45
2023-05-13T05:46:28.587Z,13.77
2023-05-13T05:50:10.772Z,17.60
2023-05-13T05:53:52.624Z,12.95
2023-05-13T05:57:34.416Z,13.82
2023-05-13T06:01:16.348Z,15.70
2023-05-13T06:04:58.174Z,14.82
2023-05-13T06:08:39.987Z,14.45
2023-05-13T06:12:22.817Z,13.00
2023-05-13T06:16:05.034Z,13.75
2023-05-13T06:19:49.975Z,15.23
2023-05-13T06:23:31.804Z,11.52
2023-05-13T06:27:14.088Z,14.43
2023-05-13T06:30:56.757Z,11.55
2023-05-13T06:34:40.430Z,12.82
2023-05-13T06:38:22.478Z,12.40
2023-05-13T06:42:05.072Z,16.85
2023-05-13T06:45:47.026Z,14.82
2023-05-13T06:49:28.852Z,14.85
2023-05-13T06:53:13.867Z,15.30
2023-05-13T06:56:56.065Z,13.23
2023-05-13T07:00:41.150Z,14.65
2023-05-13T07:04:22.992Z,16.88
2023-05-13T07:08:08.690Z,12.95
2023-05-13T07:11:50.798Z,14.38
2023-05-13T07:15:32.729Z,18.02
2023-05-13T07:19:14.655Z,15.88
2023-05-13T07:22:56.509Z,15.75
2023-05-13T07:26:39.108Z,17.10
2023-05-13T07:30:21.380Z,17.98
2023-05-13T07:34:04.050Z,19.85
2023-05-13T07:37:45.914Z,16.00
2023-05-13T07:41:27.837Z,15.80
2023-05-13T07:45:10.275Z,17.17
2023-05-13T07:48:52.057Z,12.90
2023-05-13T07:52:34.148Z,13.60
2023-05-13T07:56:15.949Z,11.50
2023-05-13T07:59:57.815Z,15.07
2023-05-13T08:03:39.767Z,16.85
2023-05-13T08:07:21.790Z,14.75
2023-05-13T08:11:03.586Z,19.63
2023-05-13T08:14:46.546Z,17.65
2023-05-13T08:18:30.271Z,20.05
2023-05-13T08:22:12.461Z,18.27
2023-05-13T08:25:56.382Z,14.80
2023-05-13T08:29:38.197Z,21.15
2023-05-13T08:33:19.997Z,14.40
2023-05-13T08:37:02.435Z,14.65
2023-05-13T08:40:44.891Z,16.30
2023-05-13T08:44:29.385Z,18.35
2023-05-13T08:48:12.375Z,17.00
2023-05-13T08:51:54.884Z,19.00
2023-05-13T08:55:38.467Z,16.33
2023-05-13T08:59:20.404Z,15.25
2023-05-13T09:03:02.627Z,13.15
2023-05-13T09:06:49.411Z,13.70
2023-05-13T09:10:31.264Z,13.80
2023-05-13T09:14:14.366Z,13.60
2023-05-13T09:18:03.409Z,13.40
2023-05-13T09:21:45.754Z,17.98
2023-05-13T09:25:28.967Z,18.90
2023-05-13T09:29:26.024Z,16.17
2023-05-13T09:33:16.518Z,12.73
2023-05-13T09:37:01.643Z,14.57
2023-05-13T09:40:53.285Z,15.48
2023-05-13T09:44:35.241Z,13.20
2023-05-13T09:48:17.064Z,15.57
2023-05-13T09:51:58.923Z,16.45
2023-05-13T09:55:46.398Z,12.68
2023-05-13T09:59:28.359Z,14.73
2023-05-13T10:03:12.034Z,15.70
2023-05-13T10:06:54.895Z,13.70
2023-05-13T10:10:37.912Z,15.65
2023-05-13T10:14:20.239Z,16.70
2023-05-13T10:18:04.198Z,15.02
2023-05-13T10:21:49.465Z,17.13
2023-05-13T10:25:31.618Z,15.95
2023-05-13T10:29:13.906Z,18.95
2023-05-13T10:32:55.808Z,17.60
2023-05-13T10:37:00.524Z,14.35
2023-05-13T10:40:47.901Z,14.18
2023-05-13T10:44:29.823Z,14.82
2023-05-13T10:48:13.544Z,15.90
2023-05-13T10:52:04.854Z,15.52
2023-05-13T10:55:46.874Z,16.15
2023-05-13T10:59:30.680Z,18.05
2023-05-13T11:03:18.748Z,14.93
2023-05-13T11:07:15.579Z,16.02
2023-05-13T11:14:44.088Z,12.55
2023-05-13T11:18:33.278Z,13.38
2023-05-13T11:22:17.008Z,14.63
2023-05-13T11:26:17.250Z,14.32
2023-05-13T11:29:59.166Z,14.30
2023-05-13T11:34:10.211Z,12.63
2023-05-13T11:37:52.533Z,10.73
2023-05-13T11:41:34.727Z,10.48
2023-05-13T11:45:20.978Z,9.13
2023-05-13T11:49:05.876Z,8.77
2023-05-13T11:52:57.250Z,8.27
2023-05-13T11:56:43.158Z,9.98
2023-05-13T12:00:33.094Z,8.60
2023-05-13T12:04:14.873Z,9.52
2023-05-13T12:07:58.253Z,9.48
2023-05-13T12:11:40.780Z,7.65
2023-05-13T12:15:23.412Z,9.88
2023-05-13T12:19:07.218Z,11.07
2023-05-13T12:22:52.578Z,8.82
2023-05-13T12:26:34.564Z,10.73
2023-05-13T12:30:16.462Z,10.35
2023-05-13T12:33:58.315Z,11.93
2023-05-13T12:37:40.147Z,10.23
2023-05-13T12:41:23.019Z,8.70
2023-05-13T12:45:06.142Z,10.65
2023-05-13T12:48:47.989Z,12.50
2023-05-13T12:52:29.798Z,9.90
2023-05-13T12:56:12.227Z,10.10
2023-05-13T12:59:54.082Z,10.02
2023-05-13T13:03:36.168Z,9.40
2023-05-13T13:07:18.225Z,9.82
2023-05-13T13:11:01.308Z,9.90
2023-05-13T13:14:43.274Z,12.23
2023-05-13T13:18:25.877Z,11.18
2023-05-13T13:22:07.895Z,10.90
2023-05-13T13:25:49.832Z,11.45
2023-05-13T13:29:32.357Z,8.75
2023-05-13T13:33:18.023Z,12.77
2023-05-13T13:36:59.929Z,9.13
2023-05-13T13:40:41.787Z,13.40
2023-05-13T13:44:23.841Z,11.35
2023-05-13T13:48:06.258Z,11.05
2023-05-13T13:51:48.180Z,12.13
2023-05-13T13:55:30.060Z,9.88
2023-05-13T13:59:11.953Z,9.38
2023-05-13T14:02:54.055Z,11.18
2023-05-13T14:06:35.984Z,10.45
2023-05-13T14:10:17.779Z,11.25
2023-05-13T14:13:59.693Z,11.13
2023-05-13T14:17:41.591Z,11.48
2023-05-13T14:21:23.504Z,10.32
2023-05-13T14:25:05.694Z,9.02
2023-05-13T14:28:47.587Z,10.77
2023-05-13T14:32:29.544Z,11.38
2023-05-13T14:36:16.082Z,11.40
2023-05-13T14:39:58.039Z,12.40
2023-05-13T14:43:39.919Z,11.73
2023-05-13T14:47:21.734Z,13.00
2023-05-13T14:51:03.678Z,11.77
2023-05-13T14:54:45.468Z,10.68
2023-05-13T14:58:27.317Z,13.10
2023-05-13T15:02:09.219Z,14.10
2023-05-13T15:05:51.739Z,11.07
2023-05-13T15:09:33.622Z,12.38
2023-05-13T15:13:15.581Z,12.68
2023-05-13T15:16:57.564Z,12.90
2023-05-13T15:20:39.492Z,15.57
2023-05-13T15:24:21.459Z,12.10
2023-05-13T15:28:03.823Z,15.27
2023-05-13T15:31:45.772Z,12.40
2023-05-13T15:35:27.662Z,13.45
2023-05-13T15:39:11.181Z,14.35
2023-05-13T15:42:53.201Z,13.93
2023-05-13T15:46:35.262Z,12.95
2023-05-13T15:50:18.911Z,12.95
2023-05-13T15:54:01.124Z,13.02
2023-05-13T15:57:43.134Z,15.05
2023-05-13T16:01:25.271Z,13.05
2023-05-13T16:05:07.990Z,17.38
2023-05-13T16:08:49.881Z,13.65
2023-05-13T16:12:34.996Z,12.88
2023-05-13T16:16:16.881Z,12.27
2023-05-13T16:19:59.902Z,12.07
2023-05-13T16:23:41.812Z,14.82
2023-05-13T16:27:23.720Z,15.10
2023-05-13T16:31:05.700Z,14.23
2023-05-13T16:34:47.719Z,13.52
2023-05-13T16:38:30.714Z,13.60
2023-05-13T16:42:15.716Z,13.80
2023-05-13T16:45:57.543Z,13.70
2023-05-13T16:49:39.492Z,14.20
2023-05-13T16:53:26.324Z,11.65
2023-05-13T16:57:08.230Z,10.60
2023-05-13T17:00:50.179Z,13.10
2023-05-13T17:04:32.149Z,12.73
2023-05-13T17:08:13.937Z,11.88
2023-05-13T17:11:59.295Z,11.57
2023-05-13T17:15:41.128Z,14.98
2023-05-13T17:19:22.936Z,13.05
2023-05-13T17:23:04.745Z,11.63
2023-05-13T17:26:46.549Z,11.73
2023-05-13T17:30:28.569Z,12.43
2023-05-13T17:34:10.438Z,11.65
2023-05-13T17:37:52.315Z,10.38
2023-05-13T17:41:34.360Z,9.32
2023-05-13T17:45:16.282Z,10.70
2023-05-13T17:48:58.248Z,10.23
2023-05-13T17:52:40.842Z,9.77
2023-05-13T17:56:22.775Z,11.93
2023-05-13T18:00:06.995Z,10.90
2023-05-13T18:03:48.909Z,10.07
2023-05-13T18:07:31.041Z,11.65
2023-05-13T18:11:12.848Z,9.95
2023-05-13T18:14:54.814Z,11.23
2023-05-13T18:18:36.997Z,11.73
2023-05-13T18:22:18.888Z,10.52
2023-05-13T18:26:00.947Z,11.20
2023-05-13T18:29:42.775Z,10.68
2023-05-13T18:33:24.660Z,10.35
2023-05-13T18:37:06.690Z,10.27
2023-05-13T18:40:48.492Z,9.68
2023-05-13T18:44:30.487Z,11.45
2023-05-13T18:48:12.333Z,10.27
2023-05-13T18:51:54.756Z,10.63
2023-05-13T18:55:36.765Z,10.65
2023-05-13T18:59:18.613Z,10.45
2023-05-13T19:03:00.744Z,9.93
2023-05-13T19:06:42.642Z,11.45
2023-05-13T19:10:24.818Z,10.60
2023-05-13T19:14:06.940Z,10.07
2023-05-13T19:17:48.932Z,9.90
2023-05-13T19:21:30.918Z,10.93
2023-05-13T19:25:12.729Z,7.82
2023-05-13T19:28:54.549Z,10.18
2023-05-13T19:32:36.820Z,10.93
2023-05-13T19:36:18.911Z,14.13
2023-05-13T19:40:00.818Z,11.27
2023-05-13T19:43:42.620Z,13.05
2023-05-13T19:47:26.812Z,11.82
2023-05-13T19:51:08.714Z,10.50
2023-05-13T19:54:51.939Z,9.80
2023-05-13T19:58:34.085Z,10.23
2023-05-13T20:02:16.008Z,10.35
2023-05-13T20:05:57.910Z,11.02
2023-05-13T20:09:39.724Z,12.77
2023-05-13T20:13:21.516Z,11.35
2023-05-13T20:17:03.708Z,12.35
2023-05-13T20:20:47.066Z,14.23
2023-05-13T20:24:28.915Z,15.63
2023-05-13T20:28:10.696Z,11.55
2023-05-13T20:31:52.650Z,10.63
2023-05-13T20:35:36.796Z,11.27
2023-05-13T20:39:18.651Z,12.55
2023-05-13T20:43:01.431Z,10.10
2023-05-13T20:46:43.914Z,11.77
2023-05-13T20:50:27.533Z,12.35
2023-05-13T20:54:11.155Z,14.07
2023-05-13T20:57:53.075Z,12.45
2023-05-13T21:01:36.006Z,10.90
2023-05-13T21:05:17.968Z,10.98
2023-05-13T21:08:59.909Z,11.80
2023-05-13T21:12:43.816Z,14.85
2023-05-13T21:16:25.984Z,15.98
2023-05-13T21:20:08.680Z,18.48
2023-05-13T21:23:50.647Z,17.77
2023-05-13T21:27:44.731Z,15.52
2023-05-13T21:31:26.674Z,16.77
2023-05-13T21:35:08.706Z,18.83
2023-05-13T21:38:51.715Z,16.73
2023-05-13T21:42:33.502Z,14.95
2023-05-13T21:46:15.679Z,16.33
2023-05-13T21:49:57.576Z,13.20
2023-05-13T21:53:39.445Z,14.65
2023-05-13T21:57:22.062Z,11.93
2023-05-13T22:01:03.988Z,14.13
2023-05-13T22:04:46.338Z,13.52
2023-05-13T22:08:29.386Z,16.75
2023-05-13T22:12:11.189Z,14.23
2023-05-13T22:15:53.176Z,16.05
2023-05-13T22:19:35.180Z,13.73
2023-05-13T22:23:18.149Z,13.68
2023-05-13T22:27:00.306Z,15.75
2023-05-13T22:30:42.472Z,13.82
2023-05-13T22:34:25.719Z,16.83
2023-05-13T22:38:07.504Z,15.80
2023-05-13T22:41:49.305Z,21.33
2023-05-13T22:45:31.144Z,19.75
2023-05-13T22:49:12.950Z,17.92
2023-05-13T22:52:54.798Z,19.83
2023-05-13T22:56:36.666Z,20.45
2023-05-13T23:00:18.526Z,19.05
2023-05-13T23:04:00.625Z,19.65
2023-05-13T23:07:42.563Z,16.92
2023-05-13T23:11:24.372Z,17.83
2023-05-13T23:15:33.279Z,17.83
2023-05-13T23:19:15.192Z,20.20
2023-05-13T23:22:57.072Z,16.95
2023-05-13T23:26:38.989Z,16.92
2023-05-13T23:30:21.289Z,19.10
2023-05-13T23:34:03.226Z,17.48
2023-05-13T23:37:45.122Z,15.50
2023-05-13T23:41:27.181Z,14.90
2023-05-13T23:45:09.728Z,14.18
2023-05-13T23:48:51.658Z,14.80
2023-05-13T23:52:33.483Z,18.50
2023-05-13T23:56:15.579Z,14.40
2023-05-13T23:59:57.517Z,16.80
